createdAt,value
2023-05-11T00:00:30.684Z,71.10
2023-05-11T00:03:00.964Z,71.10
2023-05-11T00:05:27.587Z,71.20
2023-05-11T00:07:54.082Z,71.30
2023-05-11T00:10:20.568Z,71.20
2023-05-11T00:12:47.059Z,71.20
2023-05-11T00:15:13.548Z,71.10
2023-05-11T00:17:40.113Z,71.10
2023-05-11T00:20:06.668Z,71.00
2023-05-11T00:22:33.137Z,71.10
2023-05-11T00:24:59.621Z,71.20
2023-05-11T00:27:26.092Z,71.20
2023-05-11T00:29:52.569Z,71.30
2023-05-11T00:32:19.067Z,71.20
2023-05-11T00:34:45.560Z,71.10
2023-05-11T00:37:12.082Z,71.20
2023-05-11T00:39:38.597Z,71.20
2023-05-11T00:42:05.095Z,71.30
2023-05-11T00:44:31.572Z,71.20
2023-05-11T00:46:58.084Z,71.30
2023-05-11T00:49:24.618Z,71.30
2023-05-11T00:51:51.125Z,71.20
2023-05-11T00:54:17.585Z,71.20
2023-05-11T00:56:44.070Z,71.20
2023-05-11T00:59:12.684Z,71.20
2023-05-11T01:01:39.168Z,71.20
2023-05-11T01:04:05.664Z,71.00
2023-05-11T01:06:32.158Z,71.20
2023-05-11T01:08:58.635Z,71.10
2023-05-11T01:11:25.176Z,71.00
2023-05-11T01:13:51.683Z,71.20
2023-05-11T01:16:18.191Z,71.20
2023-05-11T01:18:44.723Z,71.30
2023-05-11T01:21:11.242Z,71.20
2023-05-11T01:23:37.732Z,71.20
2023-05-11T01:26:04.212Z,71.00
2023-05-11T01:28:30.684Z,71.10
2023-05-11T01:30:57.163Z,71.10
2023-05-11T01:33:23.671Z,71.10
2023-05-11T01:35:50.141Z,71.10
2023-05-11T01:38:16.635Z,71.10
2023-05-11T01:40:43.117Z,71.30
2023-05-11T01:43:09.632Z,71.20
2023-05-11T01:45:36.130Z,71.10
2023-05-11T01:48:02.698Z,71.10
2023-05-11T01:50:29.266Z,71.30
2023-05-11T01:52:55.750Z,71.10
2023-05-11T01:55:22.250Z,71.20
2023-05-11T01:57:48.758Z,71.20
2023-05-11T02:00:15.291Z,71.30
2023-05-11T02:02:41.915Z,71.20
2023-05-11T02:05:08.458Z,71.20
2023-05-11T02:07:36.789Z,71.20
2023-05-11T02:10:03.275Z,71.30
2023-05-11T02:12:30.785Z,71.20
2023-05-11T02:14:57.276Z,71.20
2023-05-11T02:17:23.761Z,71.20
2023-05-11T02:19:50.235Z,71.20
2023-05-11T02:22:16.726Z,71.20
2023-05-11T02:24:43.207Z,71.20
2023-05-11T02:27:09.695Z,71.10
2023-05-11T02:29:36.210Z,71.20
2023-05-11T02:32:02.715Z,71.20
2023-05-11T02:34:29.215Z,71.10
2023-05-11T02:36:55.714Z,71.20
2023-05-11T02:39:24.810Z,71.20
2023-05-11T02:41:51.265Z,71.20
2023-05-11T02:44:17.746Z,71.20
2023-05-11T02:46:44.241Z,71.20
2023-05-11T02:49:10.735Z,71.20
2023-05-11T02:51:37.212Z,71.20
2023-05-11T02:54:03.704Z,71.20
2023-05-11T02:56:30.186Z,71.20
2023-05-11T02:58:57.728Z,71.20
2023-05-11T03:01:24.431Z,71.10
2023-05-11T03:03:51.369Z,71.10
2023-05-11T03:06:17.918Z,71.20
2023-05-11T03:08:44.387Z,71.20
2023-05-11T03:11:10.865Z,71.10
2023-05-11T03:16:27.800Z,71.20
2023-05-11T03:18:54.867Z,71.10
2023-05-11T03:21:21.532Z,71.10
2023-05-11T03:23:48.092Z,71.00
2023-05-11T03:26:14.608Z,71.00
2023-05-11T03:28:41.104Z,71.20
2023-05-11T03:31:07.619Z,71.20
2023-05-11T03:33:34.101Z,71.10
2023-05-11T03:36:00.624Z,71.10
2023-05-11T03:38:27.100Z,71.10
2023-05-11T03:40:53.601Z,71.10
2023-05-11T03:43:20.089Z,71.00
2023-05-11T03:45:46.574Z,71.20
2023-05-11T03:48:13.111Z,71.30
2023-05-11T03:50:39.590Z,71.20
2023-05-11T03:53:06.072Z,71.30
2023-05-11T03:55:32.543Z,71.20
2023-05-11T03:57:59.023Z,71.20
2023-05-11T04:00:25.529Z,71.20
2023-05-11T04:02:52.095Z,71.20
2023-05-11T04:05:18.592Z,71.20
2023-05-11T04:07:45.067Z,71.40
2023-05-11T04:10:11.566Z,72.00
2023-05-11T04:12:38.044Z,71.30
2023-05-11T04:15:04.571Z,71.30
2023-05-11T04:17:31.077Z,71.10
2023-05-11T04:19:57.606Z,71.20
2023-05-11T04:22:24.098Z,71.20
2023-05-11T04:24:50.600Z,71.20
2023-05-11T04:27:17.095Z,71.20
2023-05-11T04:29:43.601Z,71.10
2023-05-11T04:32:12.909Z,71.20
2023-05-11T04:34:39.377Z,71.10
2023-05-11T04:37:05.885Z,71.00
2023-05-11T04:39:32.340Z,71.10
2023-05-11T04:41:58.832Z,71.00
2023-05-11T04:44:25.317Z,71.00
2023-05-11T04:46:51.852Z,71.00
2023-05-11T04:49:18.346Z,71.00
2023-05-11T04:51:44.808Z,71.00
2023-05-11T04:54:11.299Z,70.90
2023-05-11T04:56:37.808Z,70.90
2023-05-11T04:59:05.409Z,71.00
2023-05-11T05:01:32.175Z,71.00
2023-05-11T05:03:58.801Z,71.00
2023-05-11T05:06:25.296Z,71.10
2023-05-11T05:08:51.781Z,71.00
2023-05-11T05:11:18.255Z,71.10
2023-05-11T05:13:44.712Z,71.20
2023-05-11T05:16:11.194Z,71.10
2023-05-11T05:18:37.737Z,71.00
2023-05-11T05:21:04.232Z,71.00
2023-05-11T05:23:30.708Z,71.00
2023-05-11T05:26:00.969Z,71.00
2023-05-11T05:28:27.445Z,71.00
2023-05-11T05:30:53.958Z,70.90
2023-05-11T05:33:20.535Z,70.90
2023-05-11T05:35:47.019Z,71.00
2023-05-11T05:38:13.516Z,71.00
2023-05-11T05:40:39.986Z,71.00
2023-05-11T05:43:06.464Z,71.00
2023-05-11T05:45:37.137Z,70.90
2023-05-11T05:48:03.663Z,70.90
2023-05-11T05:50:30.198Z,71.00
2023-05-11T05:52:56.683Z,71.00
2023-05-11T05:55:24.925Z,71.00
2023-05-11T05:57:51.479Z,70.80
2023-05-11T06:00:18.250Z,70.90
2023-05-11T06:02:44.954Z,70.90
2023-05-11T06:05:11.495Z,70.80
2023-05-11T06:07:37.974Z,70.80
2023-05-11T06:10:04.466Z,70.80
2023-05-11T06:12:30.943Z,70.80
2023-05-11T06:14:57.444Z,70.80
2023-05-11T06:17:23.975Z,70.80
2023-05-11T06:19:50.513Z,70.90
2023-05-11T06:22:16.993Z,70.90
2023-05-11T06:24:43.520Z,71.00
2023-05-11T06:27:10.009Z,71.00
2023-05-11T06:29:36.595Z,71.00
2023-05-11T06:32:03.156Z,70.90
2023-05-11T06:34:29.780Z,70.90
2023-05-11T06:36:56.263Z,70.80
2023-05-11T06:39:22.758Z,70.90
2023-05-11T06:41:49.249Z,70.80
2023-05-11T06:44:15.769Z,70.90
2023-05-11T06:46:42.247Z,70.80
2023-05-11T06:49:08.750Z,70.80
2023-05-11T06:51:37.000Z,70.80
2023-05-11T06:54:03.512Z,70.80
2023-05-11T06:56:29.985Z,70.90
2023-05-11T06:58:56.464Z,70.90
2023-05-11T07:01:23.031Z,70.90
2023-05-11T07:03:55.058Z,70.90
2023-05-11T07:06:21.550Z,70.90
2023-05-11T07:08:48.032Z,70.80
2023-05-11T07:11:14.590Z,70.80
2023-05-11T07:13:41.078Z,70.70
2023-05-11T07:16:07.630Z,70.80
2023-05-11T07:18:34.152Z,70.70
2023-05-11T07:21:00.698Z,70.70
2023-05-11T07:23:31.212Z,70.60
2023-05-11T07:25:57.715Z,70.60
2023-05-11T07:28:24.180Z,70.60
2023-05-11T07:30:50.689Z,70.60
2023-05-11T07:33:17.185Z,70.60
2023-05-11T07:35:43.649Z,70.70
2023-05-11T07:38:10.148Z,70.60
2023-05-11T07:40:36.647Z,70.50
2023-05-11T07:43:03.161Z,70.30
2023-05-11T07:45:29.676Z,70.30
2023-05-11T07:47:56.156Z,70.30
2023-05-11T07:50:25.251Z,70.20
2023-05-11T07:52:51.956Z,70.20
2023-05-11T07:55:18.583Z,70.20
2023-05-11T07:57:45.207Z,70.10
2023-05-11T08:00:11.700Z,70.20
2023-05-11T08:02:38.308Z,70.00
2023-05-11T08:05:04.983Z,70.00
2023-05-11T08:07:37.872Z,69.90
2023-05-11T08:10:06.112Z,70.60
2023-05-11T08:12:32.600Z,70.00
2023-05-11T08:14:59.103Z,70.00
2023-05-11T08:17:25.653Z,70.10
2023-05-11T08:19:52.181Z,70.10
2023-05-11T08:22:18.664Z,70.00
2023-05-11T08:24:45.196Z,70.00
2023-05-11T08:27:11.685Z,70.10
2023-05-11T08:29:38.145Z,70.00
2023-05-11T08:32:04.745Z,70.00
2023-05-11T08:34:31.357Z,70.10
2023-05-11T08:36:57.872Z,70.00
2023-05-11T08:39:43.658Z,69.90
2023-05-11T08:42:10.849Z,70.00
2023-05-11T08:44:37.343Z,70.00
2023-05-11T08:47:20.958Z,69.90
2023-05-11T08:49:48.936Z,70.10
2023-05-11T08:52:15.429Z,70.00
2023-05-11T08:54:41.938Z,69.90
2023-05-11T08:57:08.427Z,70.00
2023-05-11T08:59:37.118Z,70.00
2023-05-11T09:02:03.933Z,69.90
2023-05-11T09:04:30.501Z,70.10
2023-05-11T09:06:56.985Z,70.00
2023-05-11T09:09:23.498Z,70.00
2023-05-11T09:11:49.990Z,70.10
2023-05-11T09:14:16.548Z,70.00
2023-05-11T09:16:43.071Z,70.00
2023-05-11T09:19:09.645Z,70.00
2023-05-11T09:21:36.222Z,70.00
2023-05-11T09:24:02.766Z,70.00
2023-05-11T09:26:29.294Z,69.90
2023-05-11T09:29:02.941Z,69.90
2023-05-11T09:31:30.374Z,70.00
2023-05-11T09:33:57.776Z,69.90
2023-05-11T09:36:25.493Z,70.00
2023-05-11T09:38:57.220Z,69.90
2023-05-11T09:41:23.989Z,69.90
2023-05-11T09:43:50.447Z,69.90
2023-05-11T09:46:17.001Z,69.90
2023-05-11T09:48:43.534Z,69.90
2023-05-11T09:51:10.033Z,70.00
2023-05-11T09:53:36.510Z,69.90
2023-05-11T09:56:03.036Z,69.90
2023-05-11T09:58:29.522Z,70.00
2023-05-11T10:00:56.013Z,70.00
2023-05-11T10:03:22.657Z,70.00
2023-05-11T10:05:49.222Z,70.00
2023-05-11T10:08:15.707Z,70.00
2023-05-11T10:10:42.199Z,69.90
2023-05-11T10:13:08.688Z,69.90
2023-05-11T10:15:35.177Z,69.80
2023-05-11T10:18:07.416Z,69.80
2023-05-11T10:20:33.924Z,69.70
2023-05-11T10:23:00.432Z,69.60
2023-05-11T10:25:26.916Z,69.70
2023-05-11T10:27:53.473Z,69.50
2023-05-11T10:30:20.139Z,69.50
2023-05-11T10:32:47.036Z,69.60
2023-05-11T10:35:13.636Z,69.50
2023-05-11T10:37:40.135Z,69.60
2023-05-11T10:40:06.601Z,69.30
2023-05-11T10:42:33.102Z,69.40
2023-05-11T10:44:59.692Z,69.50
2023-05-11T10:47:26.231Z,69.40
2023-05-11T10:49:52.732Z,69.30
2023-05-11T10:52:19.226Z,69.30
2023-05-11T10:54:45.708Z,69.20
2023-05-11T10:57:12.194Z,69.20
2023-05-11T10:59:38.687Z,69.20
2023-05-11T11:02:05.177Z,69.20
2023-05-11T11:04:31.676Z,69.10
2023-05-11T11:06:58.177Z,69.10
2023-05-11T11:09:24.648Z,69.10
2023-05-11T11:11:51.284Z,69.10
2023-05-11T11:14:17.856Z,69.10
2023-05-11T11:16:49.273Z,69.00
2023-05-11T11:19:15.766Z,69.10
2023-05-11T11:21:42.256Z,69.10
2023-05-11T11:24:08.756Z,69.00
2023-05-11T11:26:35.229Z,69.00
2023-05-11T11:29:01.732Z,69.00
2023-05-11T11:31:28.515Z,69.00
2023-05-11T11:33:55.023Z,69.10
2023-05-11T11:36:21.507Z,69.10
2023-05-11T11:38:47.995Z,69.00
2023-05-11T11:41:14.480Z,69.10
2023-05-11T11:43:40.959Z,69.10
2023-05-11T11:46:07.444Z,69.10
2023-05-11T11:48:33.990Z,69.00
2023-05-11T11:51:00.472Z,69.00
2023-05-11T11:53:26.957Z,69.00
2023-05-11T11:55:53.437Z,69.10
2023-05-11T11:58:19.922Z,69.10
2023-05-11T12:00:46.404Z,69.10
2023-05-11T12:03:13.034Z,69.00
2023-05-11T12:05:39.631Z,69.10
2023-05-11T12:08:06.122Z,69.10
2023-05-11T12:10:32.604Z,69.10
2023-05-11T12:12:59.983Z,69.10
2023-05-11T12:15:26.742Z,69.10
2023-05-11T12:17:53.256Z,69.20
2023-05-11T12:20:19.736Z,69.10
2023-05-11T12:22:46.225Z,69.10
2023-05-11T12:25:12.745Z,69.10
2023-05-11T12:27:39.218Z,69.20
2023-05-11T12:30:05.707Z,69.20
2023-05-11T12:32:32.225Z,69.00
2023-05-11T12:34:58.745Z,69.20
2023-05-11T12:37:25.202Z,69.10
2023-05-11T12:39:51.720Z,69.30
2023-05-11T12:42:18.197Z,69.20
2023-05-11T12:44:44.749Z,69.10
2023-05-11T12:47:11.222Z,69.10
2023-05-11T12:49:37.712Z,69.20
2023-05-11T12:52:04.192Z,69.20
2023-05-11T12:54:30.669Z,69.20
2023-05-11T12:56:57.154Z,69.20
2023-05-11T12:59:23.645Z,69.20
2023-05-11T13:01:50.252Z,69.40
2023-05-11T13:04:16.815Z,69.20
2023-05-11T13:06:43.287Z,69.10
2023-05-11T13:09:09.746Z,69.30
2023-05-11T13:11:36.211Z,69.30
2023-05-11T13:14:02.765Z,69.20
2023-05-11T13:16:29.440Z,69.20
2023-05-11T13:18:56.038Z,69.30
2023-05-11T13:21:22.669Z,69.20
2023-05-11T13:23:49.158Z,69.20
2023-05-11T13:26:15.650Z,69.10
2023-05-11T13:28:42.137Z,69.20
2023-05-11T13:31:08.698Z,69.10
2023-05-11T13:33:35.252Z,69.10
2023-05-11T13:36:01.759Z,69.10
2023-05-11T13:38:28.216Z,69.10
2023-05-11T13:40:54.891Z,69.20
2023-05-11T13:43:21.373Z,69.00
2023-05-11T13:45:47.889Z,69.00
2023-05-11T13:48:14.409Z,69.00
2023-05-11T13:50:40.998Z,69.00
2023-05-11T13:53:07.484Z,69.20
2023-05-11T13:55:33.960Z,69.30
2023-05-11T13:58:00.543Z,69.40
2023-05-11T14:00:27.045Z,69.50
2023-05-11T14:02:53.649Z,69.50
2023-05-11T14:05:20.417Z,69.60
2023-05-11T14:07:48.966Z,69.50
2023-05-11T14:10:15.849Z,69.60
2023-05-11T14:12:42.333Z,70.00
2023-05-11T14:15:08.817Z,69.60
2023-05-11T14:17:35.415Z,69.70
2023-05-11T14:20:01.982Z,69.60
2023-05-11T14:22:28.481Z,69.70
2023-05-11T14:24:54.978Z,69.70
2023-05-11T14:27:21.490Z,69.80
2023-05-11T14:29:47.991Z,69.80
2023-05-11T14:32:14.499Z,69.70
2023-05-11T14:34:40.981Z,69.80
2023-05-11T14:37:07.491Z,69.90
2023-05-11T14:39:33.950Z,69.80
2023-05-11T14:42:00.443Z,69.90
2023-05-11T14:44:27.298Z,69.90
2023-05-11T14:46:53.860Z,70.00
2023-05-11T14:49:20.358Z,70.00
2023-05-11T14:51:46.858Z,70.00
2023-05-11T14:54:13.360Z,70.10
2023-05-11T14:56:39.841Z,70.00
2023-05-11T14:59:06.301Z,70.00
2023-05-11T15:01:32.930Z,70.10
2023-05-11T15:03:59.509Z,70.10
2023-05-11T15:06:26.017Z,70.20
2023-05-11T15:08:52.561Z,70.20
2023-05-11T15:11:19.066Z,70.40
2023-05-11T15:13:45.564Z,70.10
2023-05-11T15:16:12.061Z,70.20
2023-05-11T15:18:39.296Z,71.00
2023-05-11T15:21:07.059Z,70.30
2023-05-11T15:23:33.548Z,70.30
2023-05-11T15:26:00.006Z,70.20
2023-05-11T15:28:26.481Z,70.40
2023-05-11T15:30:52.969Z,70.40
2023-05-11T15:33:19.659Z,70.40
2023-05-11T15:35:46.256Z,70.50
2023-05-11T15:38:12.801Z,70.50
2023-05-11T15:40:39.266Z,70.50
2023-05-11T15:43:05.803Z,70.40
2023-05-11T15:45:32.304Z,70.50
2023-05-11T15:47:58.838Z,70.50
2023-05-11T15:50:25.342Z,71.30
2023-05-11T15:52:51.836Z,70.50
2023-05-11T15:55:18.333Z,70.50
2023-05-11T15:57:44.814Z,70.40
2023-05-11T16:00:11.562Z,70.40
2023-05-11T16:02:38.210Z,70.50
2023-05-11T16:05:05.103Z,70.50
2023-05-11T16:07:31.677Z,70.50
2023-05-11T16:09:58.145Z,70.50
2023-05-11T16:12:24.648Z,70.50
2023-05-11T16:14:51.155Z,70.50
2023-05-11T16:17:17.682Z,70.60
2023-05-11T16:19:44.287Z,70.50
2023-05-11T16:22:10.774Z,70.50
2023-05-11T16:24:37.266Z,70.60
2023-05-11T16:27:03.745Z,70.60
2023-05-11T16:29:30.230Z,70.60
2023-05-11T16:31:56.829Z,70.70
2023-05-11T16:34:23.363Z,70.60
2023-05-11T16:36:49.844Z,70.80
2023-05-11T16:39:16.327Z,70.90
2023-05-11T16:41:42.808Z,70.80
2023-05-11T16:44:09.308Z,70.80
2023-05-11T16:46:35.843Z,70.70
2023-05-11T16:49:02.364Z,70.90
2023-05-11T16:51:28.833Z,70.70
2023-05-11T16:53:55.335Z,70.70
2023-05-11T16:56:21.844Z,70.90
2023-05-11T16:58:48.334Z,70.70
2023-05-11T17:01:14.874Z,70.80
2023-05-11T17:03:41.396Z,70.80
2023-05-11T17:06:07.951Z,70.80
2023-05-11T17:08:34.444Z,70.90
2023-05-11T17:11:00.913Z,70.90
2023-05-11T17:13:27.390Z,70.80
2023-05-11T17:15:53.900Z,70.70
2023-05-11T17:18:20.463Z,70.80
2023-05-11T17:20:46.998Z,70.90
2023-05-11T17:23:13.478Z,70.90
2023-05-11T17:25:40.838Z,70.90
2023-05-11T17:28:08.227Z,70.90
2023-05-11T17:30:47.400Z,70.90
2023-05-11T17:33:15.090Z,71.50
2023-05-11T17:35:41.771Z,70.80
2023-05-11T17:38:08.231Z,70.80
2023-05-11T17:40:34.693Z,70.80
2023-05-11T17:43:01.156Z,70.90
2023-05-11T17:45:27.663Z,70.80
2023-05-11T17:47:54.160Z,70.80
2023-05-11T17:50:20.724Z,70.60
2023-05-11T17:52:49.364Z,71.50
2023-05-11T17:55:17.547Z,70.80
2023-05-11T17:57:44.407Z,70.80
2023-05-11T18:00:10.910Z,70.80
2023-05-11T18:02:37.495Z,70.70
2023-05-11T18:05:07.606Z,70.70
2023-05-11T18:07:34.095Z,70.70
2023-05-11T18:10:00.604Z,70.80
2023-05-11T18:12:27.094Z,70.70
2023-05-11T18:14:53.593Z,70.90
2023-05-11T18:17:20.089Z,70.70
2023-05-11T18:19:46.565Z,70.80
2023-05-11T18:22:13.056Z,70.80
2023-05-11T18:24:39.541Z,70.90
2023-05-11T18:27:06.036Z,70.90
2023-05-11T18:29:32.539Z,71.60
2023-05-11T18:31:59.105Z,71.10
2023-05-11T18:34:25.640Z,71.00
2023-05-11T18:36:52.128Z,71.00
2023-05-11T18:39:18.610Z,71.00
2023-05-11T18:41:45.093Z,71.00
2023-05-11T18:44:11.577Z,71.00
2023-05-11T18:46:38.100Z,71.10
2023-05-11T18:49:04.625Z,71.10
2023-05-11T18:51:31.106Z,71.20
2023-05-11T18:53:57.594Z,71.20
2023-05-11T18:56:24.102Z,71.20
2023-05-11T18:58:50.569Z,71.00
2023-05-11T19:01:17.092Z,71.10
2023-05-11T19:03:43.698Z,71.20
2023-05-11T19:06:10.198Z,71.20
2023-05-11T19:08:36.706Z,71.20
2023-05-11T19:11:03.191Z,71.20
2023-05-11T19:13:29.670Z,71.10
2023-05-11T19:15:56.145Z,71.30
2023-05-11T19:18:22.676Z,71.20
2023-05-11T19:20:49.211Z,71.30
2023-05-11T19:23:15.740Z,71.20
2023-05-11T19:25:42.224Z,71.30
2023-05-11T19:28:08.707Z,71.40
2023-05-11T19:30:35.192Z,71.30
2023-05-11T19:33:01.713Z,71.30
2023-05-11T19:35:28.289Z,71.50
2023-05-11T19:37:54.808Z,71.30
2023-05-11T19:40:44.666Z,71.30
2023-05-11T19:43:07.715Z,71.40
2023-05-11T19:45:34.365Z,71.30
2023-05-11T19:48:00.881Z,71.30
2023-05-11T19:50:27.515Z,71.40
2023-05-11T19:52:54.037Z,71.50
2023-05-11T19:55:20.517Z,71.40
2023-05-11T19:57:47.012Z,71.40
2023-05-11T20:00:13.509Z,71.40
2023-05-11T20:02:40.036Z,71.40
2023-05-11T20:05:06.550Z,71.50
2023-05-11T20:07:33.013Z,71.50
2023-05-11T20:12:50.314Z,71.50
2023-05-11T20:15:16.757Z,71.50
2023-05-11T20:17:43.285Z,71.60
2023-05-11T20:20:09.773Z,71.70
2023-05-11T20:22:36.274Z,71.60
2023-05-11T20:25:02.745Z,71.70
2023-05-11T20:27:29.217Z,71.80
2023-05-11T20:29:55.702Z,71.70
2023-05-11T20:32:22.168Z,71.70
2023-05-11T20:34:48.664Z,71.70
2023-05-11T20:37:19.715Z,71.60
2023-05-11T20:39:46.192Z,71.60
2023-05-11T20:42:12.699Z,71.70
2023-05-11T20:44:39.300Z,71.70
2023-05-11T20:47:05.798Z,71.70
2023-05-11T20:49:38.973Z,71.70
2023-05-11T20:52:05.970Z,71.70
2023-05-11T20:54:32.466Z,71.70
2023-05-11T20:56:58.978Z,71.70
2023-05-11T21:01:54.939Z,71.80
2023-05-11T21:04:21.404Z,71.80
2023-05-11T21:06:47.906Z,71.80
2023-05-11T21:09:14.393Z,71.80
2023-05-11T21:11:40.868Z,71.90
2023-05-11T21:14:07.340Z,72.00
2023-05-11T21:16:33.830Z,71.80
2023-05-11T21:19:00.366Z,71.90
2023-05-11T21:21:26.892Z,71.90
2023-05-11T21:23:53.370Z,71.90
2023-05-11T21:26:25.779Z,71.90
2023-05-11T21:28:52.261Z,72.00
2023-05-11T21:31:18.767Z,71.90
2023-05-11T21:33:45.288Z,72.00
2023-05-11T21:36:11.801Z,72.00
2023-05-11T21:38:38.303Z,72.00
2023-05-11T21:41:04.788Z,72.00
2023-05-11T21:43:31.268Z,71.90
2023-05-11T21:45:57.815Z,72.00
2023-05-11T21:48:24.292Z,72.00
2023-05-11T21:50:50.764Z,71.90
2023-05-11T21:53:17.257Z,72.00
2023-05-11T21:55:43.755Z,72.00
2023-05-11T21:58:10.247Z,72.00
2023-05-11T22:00:36.725Z,72.20
2023-05-11T22:03:03.263Z,72.20
2023-05-11T22:05:29.747Z,72.10
2023-05-11T22:08:06.673Z,72.10
2023-05-11T22:10:40.215Z,72.10
2023-05-11T22:13:06.704Z,72.20
2023-05-11T22:15:33.189Z,72.10
2023-05-11T22:17:59.688Z,72.20
2023-05-11T22:20:26.164Z,72.20
2023-05-11T22:22:52.664Z,72.10
2023-05-11T22:25:19.148Z,72.10
2023-05-11T22:27:49.813Z,72.20
2023-05-11T22:30:16.360Z,72.10
2023-05-11T22:32:42.990Z,72.00
2023-05-11T22:35:09.506Z,72.20
2023-05-11T22:37:36.146Z,72.30
2023-05-11T22:40:02.699Z,72.20
2023-05-11T22:42:29.182Z,72.20
2023-05-11T22:44:55.676Z,72.20
2023-05-11T22:47:22.156Z,72.20
2023-05-11T22:49:48.642Z,72.10
2023-05-11T22:52:15.126Z,72.20
2023-05-11T22:54:41.613Z,72.10
2023-05-11T22:57:08.101Z,72.20
2023-05-11T22:59:34.593Z,72.30
2023-05-11T23:02:01.097Z,72.10
2023-05-11T23:04:27.601Z,72.40
2023-05-11T23:06:55.807Z,72.30
2023-05-11T23:09:22.304Z,72.30
2023-05-11T23:11:48.795Z,72.30
2023-05-11T23:14:15.276Z,72.30
2023-05-11T23:16:43.813Z,72.20
2023-05-11T23:19:10.317Z,72.30
2023-05-11T23:21:36.846Z,72.30
2023-05-11T23:24:03.318Z,72.30
2023-05-11T23:26:29.786Z,72.30
2023-05-11T23:28:56.313Z,72.40
2023-05-11T23:31:22.824Z,72.40
2023-05-11T23:33:49.349Z,72.40
2023-05-11T23:36:15.821Z,72.50
2023-05-11T23:38:42.301Z,72.50
2023-05-11T23:41:08.804Z,72.50
2023-05-11T23:43:35.286Z,72.50
2023-05-11T23:46:01.792Z,72.50
2023-05-11T23:48:28.266Z,72.40
2023-05-11T23:50:54.750Z,72.40
2023-05-11T23:53:21.236Z,72.40
2023-05-11T23:55:47.783Z,72.50
2023-05-11T23:58:14.269Z,72.40
